Time;durP1;ratioP1;P1;durP2;ratioP2;P2;SDS_P1;SDS_P2;PMS_P1;PMS_P2;Temp;Humidity;BMP_temperature;BMP_pressure;BME280_temperature;BME280_humidity;BME280_pressure;Samples;Min_cycle;Max_cycle;Signal;HPM_P1;HPM_P2
2022/09/16 00:00:17;;;;;;;6.97;2.75;;;20.10;99.90;;;;;;5095035;28;20036;-79
2022/09/16 00:02:42;;;;;;;5.18;2.08;;;20.00;99.90;;;;;;5095116;28;20048;-78
2022/09/16 00:05:09;;;;;;;11.02;2.50;;;20.00;99.90;;;;;;5094721;28;20485;-80
2022/09/16 00:07:35;;;;;;;5.80;2.65;;;20.00;99.90;;;;;;5094974;28;20035;-81
2022/09/16 00:10:00;;;;;;;5.78;2.10;;;19.90;99.90;;;;;;5094441;28;20036;-81
2022/09/16 00:12:26;;;;;;;9.80;1.42;;;19.90;99.90;;;;;;5097915;28;20055;-78
2022/09/16 00:14:53;;;;;;;7.35;2.35;;;19.90;99.90;;;;;;5094871;28;20051;-79
2022/09/16 00:17:19;;;;;;;5.00;1.33;;;19.90;99.90;;;;;;5095208;28;20090;-78
2022/09/16 00:19:45;;;;;;;6.07;1.42;;;20.00;99.90;;;;;;5094633;28;20047;-78
2022/09/16 00:22:11;;;;;;;7.95;1.50;;;20.00;99.90;;;;;;5093071;28;20066;-79
2022/09/16 00:24:37;;;;;;;4.10;1.23;;;20.10;99.90;;;;;;5093495;28;20374;-79
2022/09/16 00:27:03;;;;;;;5.05;1.15;;;20.00;99.90;;;;;;5094780;28;20455;-78
2022/09/16 00:29:28;;;;;;;6.32;1.52;;;20.00;99.90;;;;;;5094121;28;20021;-79
2022/09/16 00:31:54;;;;;;;6.60;1.25;;;19.90;99.90;;;;;;5094402;28;20511;-78
2022/09/16 00:34:20;;;;;;;5.70;1.50;;;20.00;99.90;;;;;;5094648;28;20081;-78
2022/09/16 00:36:46;;;;;;;1.77;0.98;;;20.00;99.90;;;;;;5093124;28;20119;-78
2022/09/16 00:39:12;;;;;;;5.10;1.23;;;20.10;99.90;;;;;;5093617;28;20355;-78
2022/09/16 00:41:38;;;;;;;4.28;0.90;;;20.10;99.90;;;;;;5093068;28;20119;-78
2022/09/16 00:44:30;;;;;;;4.95;1.38;;;20.10;99.90;;;;;;5099478;28;20120;-79
2022/09/16 00:46:56;;;;;;;4.40;1.13;;;20.20;99.90;;;;;;5079495;28;20123;-78
2022/09/16 00:49:28;;;;;;;7.82;1.88;;;20.10;99.90;;;;;;5092641;28;20457;-78
2022/09/16 00:51:59;;;;;;;4.82;1.25;;;20.10;99.90;;;;;;5094636;28;20031;-80
2022/09/16 00:54:25;;;;;;;3.22;1.10;;;20.10;99.90;;;;;;5096874;28;20502;-79
2022/09/16 00:56:56;;;;;;;8.00;1.08;;;20.10;99.90;;;;;;5093906;28;20020;-78
2022/09/16 00:59:32;;;;;;;3.95;1.10;;;20.10;99.90;;;;;;5093418;28;20039;-80
2022/09/16 01:02:05;;;;;;;3.28;1.25;;;20.10;99.90;;;;;;5093699;28;20435;-78
2022/09/16 01:04:37;;;;;;;8.32;1.00;;;20.10;99.90;;;;;;5087821;28;20108;-77
2022/09/16 01:07:02;;;;;;;5.07;1.50;;;20.10;99.90;;;;;;5087230;28;20016;-78
2022/09/16 01:09:29;;;;;;;5.07;1.48;;;20.10;99.90;;;;;;5093269;28;20047;-79
2022/09/16 01:11:55;;;;;;;6.55;1.30;;;20.10;99.90;;;;;;5102346;28;20028;-79
2022/09/16 01:17:33;;;;;;;4.65;1.23;;;20.00;99.90;;;;;;5087723;28;20031;-79
2022/09/16 01:20:28;;;;;;;7.60;1.63;;;20.00;99.90;;;;;;5092647;28;20024;-78
2022/09/16 01:23:09;;;;;;;6.97;1.40;;;20.00;99.90;;;;;;5093124;28;20383;-79
2022/09/16 01:25:49;;;;;;;7.18;1.38;;;20.00;99.90;;;;;;5093820;28;20036;-78
2022/09/16 01:28:39;;;;;;;2.85;1.10;;;20.00;99.90;;;;;;5093626;28;20105;-78
2022/09/16 01:31:20;;;;;;;4.47;1.20;;;20.00;99.90;;;;;;5097262;28;20073;-78
2022/09/16 01:33:52;;;;;;;6.43;1.25;;;20.00;99.90;;;;;;5091671;28;20028;-77
2022/09/16 01:36:35;;;;;;;;;;;20.00;99.90;;;;;;5096438;28;20090;-80
2022/09/16 01:39:12;;;;;;;7.35;1.40;;;20.00;99.90;;;;;;5101971;28;20347;-77
2022/09/16 01:42:02;;;;;;;4.78;1.58;;;19.90;99.90;;;;;;5092747;28;20048;-79
2022/09/16 01:44:44;;;;;;;10.90;2.13;;;19.90;99.90;;;;;;5086945;28;20051;-79
2022/09/16 01:47:24;;;;;;;5.15;1.30;;;19.90;99.90;;;;;;5096648;28;20031;-77
2022/09/16 01:49:59;;;;;;;6.93;1.70;;;19.90;99.90;;;;;;5095931;28;20565;-79
2022/09/16 01:52:43;;;;;;;6.00;1.60;;;19.80;99.90;;;;;;5091735;28;20078;-78
2022/09/16 01:55:19;;;;;;;5.63;1.52;;;19.80;99.90;;;;;;5093516;28;20052;-78
2022/09/16 01:58:00;;;;;;;6.00;1.08;;;19.80;99.90;;;;;;5093143;28;20020;-78
2022/09/16 02:00:26;;;;;;;8.50;1.88;;;19.80;99.90;;;;;;5093033;28;20034;-80
2022/09/16 02:03:09;;;;;;;6.35;1.40;;;19.80;99.90;;;;;;5094876;28;20041;-78
2022/09/16 02:05:38;;;;;;;10.10;2.00;;;19.80;99.90;;;;;;5089984;28;20480;-78
2022/09/16 02:08:12;;;;;;;4.57;1.30;;;19.80;99.90;;;;;;5086702;28;20032;-78
2022/09/16 02:10:43;;;;;;;7.35;1.70;;;19.80;99.90;;;;;;5098644;28;20036;-78
2022/09/16 02:13:18;;;;;;;10.05;2.10;;;19.90;99.90;;;;;;5086576;28;20394;-78
2022/09/16 02:15:48;;;;;;;4.22;1.40;;;19.80;99.90;;;;;;5092764;28;20035;-79
2022/09/16 02:18:18;;;;;;;6.45;1.90;;;19.80;99.90;;;;;;5092036;28;20024;-78
2022/09/16 02:20:45;;;;;;;7.30;1.67;;;19.90;99.90;;;;;;5092503;28;20355;-79
2022/09/16 02:23:21;;;;;;;9.70;1.88;;;19.90;99.90;;;;;;5091903;28;20121;-79
2022/09/16 02:25:49;;;;;;;5.53;1.85;;;19.80;99.90;;;;;;5086653;28;20050;-77
2022/09/16 02:28:32;;;;;;;11.85;1.92;;;19.80;99.90;;;;;;5091186;28;20118;-78
2022/09/16 02:31:04;;;;;;;7.60;2.00;;;19.80;99.90;;;;;;5094547;28;20020;-78
2022/09/16 02:33:34;;;;;;;5.15;1.92;;;19.90;99.90;;;;;;5097389;28;20103;-77
2022/09/16 02:36:01;;;;;;;9.55;2.17;;;19.80;99.90;;;;;;5096988;28;20028;-79
2022/09/16 02:38:39;;;;;;;7.47;1.80;;;19.80;99.90;;;;;;5096541;28;20027;-78
2022/09/16 02:41:05;;;;;;;8.15;2.00;;;19.80;99.90;;;;;;5094349;28;20055;-78
2022/09/16 02:43:32;;;;;;;8.80;2.53;;;19.80;99.90;;;;;;5096035;28;20068;-79
2022/09/16 02:46:07;;;;;;;6.05;1.75;;;19.90;99.90;;;;;;5095311;28;20028;-80
2022/09/16 02:48:57;;;;;;;7.32;2.00;;;19.90;99.90;;;;;;5096617;28;20455;-79
2022/09/16 02:51:34;;;;;;;8.68;2.08;;;19.80;99.90;;;;;;5091539;28;20111;-78
2022/09/16 02:54:18;;;;;;;11.10;2.25;;;19.80;99.90;;;;;;5096489;28;20035;-77
2022/09/16 02:56:44;;;;;;;5.00;1.85;;;19.80;99.90;;;;;;5099518;28;20355;-79
2022/09/16 02:59:11;;;;;;;10.27;2.55;;;19.80;99.90;;;;;;5095974;28;20498;-77
2022/09/16 03:01:41;;;;;;;8.98;2.00;;;19.80;99.90;;;;;;5095965;28;20036;-78
2022/09/16 03:04:13;;;;;;;6.47;2.20;;;19.70;99.90;;;;;;5096042;28;20043;-79
2022/09/16 03:06:39;;;;;;;9.70;2.08;;;19.70;99.90;;;;;;5090080;28;20046;-79
2022/09/16 03:09:08;;;;;;;6.53;2.08;;;19.70;99.90;;;;;;5096011;28;20024;-77
2022/09/16 03:11:43;;;;;;;6.78;1.90;;;19.70;99.90;;;;;;5096016;28;20032;-78
2022/09/16 03:14:23;;;;;;;12.30;2.60;;;19.70;99.90;;;;;;5091855;28;20094;-78
2022/09/16 03:17:10;;;;;;;6.97;2.03;;;19.60;99.90;;;;;;5095603;28;20024;-78
2022/09/16 03:20:09;;;;;;;7.90;1.95;;;19.70;99.90;;;;;;5094844;28;20470;-81
2022/09/16 03:23:10;;;;;;;5.22;1.85;;;19.70;99.90;;;;;;5080555;28;20028;-77
2022/09/16 03:25:54;;;;;;;7.97;2.50;;;19.60;99.90;;;;;;5086704;28;20039;-79
2022/09/16 03:28:28;;;;;;;5.78;2.25;;;19.70;99.90;;;;;;5095002;28;20046;-78
2022/09/16 03:31:10;;;;;;;9.65;2.40;;;19.70;99.90;;;;;;5095611;28;20493;-78
2022/09/16 03:33:49;;;;;;;6.05;2.58;;;19.60;99.90;;;;;;5093947;28;20031;-79
2022/09/16 03:36:19;;;;;;;8.02;2.17;;;19.70;99.90;;;;;;5095452;28;20028;-77
2022/09/16 03:38:45;;;;;;;12.60;2.88;;;19.60;99.90;;;;;;5094026;28;20020;-77
2022/09/16 03:41:12;;;;;;;14.68;2.85;;;19.70;99.90;;;;;;5101545;28;20044;-77
2022/09/16 03:43:38;;;;;;;7.68;2.30;;;19.70;99.90;;;;;;5094867;28;20054;-79
2022/09/16 03:46:10;;;;;;;9.73;2.92;;;19.80;99.90;;;;;;5095110;28;20449;-79
2022/09/16 03:48:35;;;;;;;;;;;19.70;99.90;;;;;;5095936;28;20086;-78
2022/09/16 03:51:01;;;;;;;11.68;3.17;;;19.70;99.90;;;;;;5093512;28;20350;-77
2022/09/16 03:53:27;;;;;;;12.38;3.53;;;19.70;99.90;;;;;;5094708;28;20028;-79
2022/09/16 03:55:52;;;;;;;12.93;3.25;;;19.60;99.90;;;;;;5096874;28;20035;-77
2022/09/16 03:58:18;;;;;;;15.68;3.28;;;19.70;99.90;;;;;;5098498;28;20024;-79
2022/09/16 04:00:49;;;;;;;22.80;3.97;;;19.70;99.90;;;;;;5094777;28;20103;-77
2022/09/16 04:03:15;;;;;;;13.30;3.23;;;19.70;99.90;;;;;;5091584;28;20028;-78
2022/09/16 04:05:41;;;;;;;17.63;3.72;;;19.70;99.90;;;;;;5095396;28;20275;-79
2022/09/16 04:08:06;;;;;;;17.98;3.72;;;19.80;99.90;;;;;;5095121;28;20040;-77
2022/09/16 04:10:33;;;;;;;13.35;3.45;;;19.80;99.90;;;;;;5093532;28;20024;-78
2022/09/16 04:12:59;;;;;;;11.45;3.08;;;19.80;99.90;;;;;;5094869;28;20164;-79
2022/09/16 04:15:25;;;;;;;11.63;2.80;;;19.80;99.90;;;;;;5094878;28;20107;-76
2022/09/16 04:17:51;;;;;;;10.07;2.90;;;19.80;99.90;;;;;;5094934;28;20344;-77
2022/09/16 04:20:17;;;;;;;9.73;3.88;;;19.80;99.90;;;;;;5094700;28;20108;-78
2022/09/16 04:22:43;;;;;;;7.85;2.60;;;19.80;99.90;;;;;;5094609;28;20036;-76
2022/09/16 04:25:09;;;;;;;7.82;2.60;;;19.80;99.90;;;;;;5095111;28;20391;-77
2022/09/16 04:27:35;;;;;;;10.00;3.17;;;19.80;99.90;;;;;;5094207;28;20031;-79
2022/09/16 04:30:00;;;;;;;8.68;2.42;;;19.80;99.90;;;;;;5093291;28;20039;-78
2022/09/16 04:32:26;;;;;;;13.32;4.40;;;19.90;99.90;;;;;;5094917;28;20040;-77
2022/09/16 04:34:52;;;;;;;16.77;4.05;;;19.80;99.90;;;;;;5110735;28;20077;-78
2022/09/16 04:37:18;;;;;;;10.90;3.58;;;19.80;99.90;;;;;;5110698;28;20028;-78
2022/09/16 04:39:45;;;;;;;10.43;2.60;;;19.80;99.90;;;;;;5095166;28;20205;-77
2022/09/16 04:42:11;;;;;;;15.63;3.60;;;19.70;99.90;;;;;;5095095;28;20028;-78
2022/09/16 04:44:37;;;;;;;7.22;3.17;;;19.70;99.90;;;;;;5094975;28;20070;-77
2022/09/16 04:47:03;;;;;;;12.85;3.25;;;19.70;99.90;;;;;;5093878;28;20116;-81
2022/09/16 04:49:29;;;;;;;8.07;3.38;;;19.60;99.90;;;;;;5095150;28;20031;-78
2022/09/16 04:51:55;;;;;;;12.88;3.20;;;19.70;99.90;;;;;;5093767;28;20391;-80
2022/09/16 04:54:22;;;;;;;14.07;4.55;;;19.70;99.90;;;;;;5109920;28;20036;-79
2022/09/16 04:56:47;;;;;;;14.38;3.97;;;19.70;99.90;;;;;;5094804;28;20363;-78
2022/09/16 04:59:13;;;;;;;12.20;2.88;;;19.70;99.90;;;;;;5110025;28;20035;-78
2022/09/16 05:01:39;;;;;;;14.50;3.65;;;19.70;99.90;;;;;;5093083;28;20047;-77
2022/09/16 05:04:06;;;;;;;16.45;5.25;;;19.70;99.90;;;;;;5095085;28;20028;-77
2022/09/16 05:06:35;;;;;;;20.70;4.60;;;19.80;99.90;;;;;;5094572;28;20024;-77
2022/09/16 05:09:01;;;;;;;14.60;4.63;;;19.70;99.90;;;;;;5094667;28;20066;-79
2022/09/16 05:11:33;;;;;;;14.40;5.07;;;19.70;99.90;;;;;;5094541;28;20032;-78
2022/09/16 05:14:00;;;;;;;10.43;4.22;;;19.80;99.90;;;;;;5110520;28;20360;-78
2022/09/16 05:16:27;;;;;;;13.55;4.45;;;19.70;99.90;;;;;;5094548;28;20028;-79
2022/09/16 05:18:55;;;;;;;16.80;4.68;;;19.80;99.90;;;;;;5094385;28;20024;-79
2022/09/16 05:21:22;;;;;;;20.70;6.53;;;19.80;99.90;;;;;;5094809;28;20478;-81
2022/09/16 05:23:48;;;;;;;9.23;4.10;;;19.80;99.90;;;;;;5094654;28;20032;-79
2022/09/16 05:26:17;;;;;;;22.05;4.35;;;19.80;99.90;;;;;;5110371;28;20121;-79
2022/09/16 05:28:43;;;;;;;12.32;4.20;;;19.80;99.90;;;;;;5094462;28;20024;-78
2022/09/16 05:31:22;;;;;;;9.02;3.40;;;19.90;99.90;;;;;;5109971;28;20030;-80
2022/09/16 05:33:59;;;;;;;7.25;3.05;;;19.90;99.90;;;;;;5110247;28;20379;-77
2022/09/16 05:36:27;;;;;;;13.02;3.70;;;19.90;99.90;;;;;;5094209;28;20020;-79
2022/09/16 05:38:53;;;;;;;7.85;3.60;;;19.90;99.90;;;;;;5094009;28;20024;-78
2022/09/16 05:41:19;;;;;;;16.65;5.00;;;19.90;99.90;;;;;;5109817;28;20052;-79
2022/09/16 05:43:45;;;;;;;14.30;4.38;;;19.80;99.90;;;;;;5093815;28;20028;-77
2022/09/16 05:46:19;;;;;;;13.25;3.55;;;19.80;99.90;;;;;;5094454;28;20024;-77
2022/09/16 05:48:46;;;;;;;10.02;3.15;;;19.70;99.90;;;;;;5093953;28;20016;-79
2022/09/16 05:51:17;;;;;;;7.18;3.70;;;19.70;99.90;;;;;;5093742;28;20069;-79
2022/09/16 05:53:44;;;;;;;6.97;3.47;;;19.60;99.90;;;;;;5093962;28;20048;-80
2022/09/16 05:56:13;;;;;;;10.00;4.40;;;19.70;99.90;;;;;;5094038;28;20028;-78
2022/09/16 05:58:40;;;;;;;8.50;4.07;;;19.70;99.90;;;;;;5093878;28;20081;-78
2022/09/16 06:01:12;;;;;;;7.20;3.88;;;19.60;99.90;;;;;;5093774;28;20051;-80
2022/09/16 06:03:39;;;;;;;8.68;4.10;;;19.60;99.90;;;;;;5094025;28;20111;-80
2022/09/16 06:06:29;;;;;;;8.93;4.38;;;19.70;99.90;;;;;;5093544;28;20028;-79
2022/09/16 06:09:06;;;;;;;15.68;4.35;;;19.60;99.90;;;;;;5093977;28;20027;-80
2022/09/16 06:11:39;;;;;;;8.13;3.58;;;19.70;99.90;;;;;;5094090;28;20103;-80
2022/09/16 06:14:06;;;;;;;8.57;3.85;;;19.70;99.90;;;;;;5093849;28;20425;-81
2022/09/16 06:16:32;;;;;;;8.88;3.92;;;19.80;99.90;;;;;;5093374;28;20427;-78
2022/09/16 06:19:00;;;;;;;13.73;4.03;;;19.90;99.90;;;;;;5093715;28;20115;-79
2022/09/16 06:21:26;;;;;;;8.93;3.40;;;20.00;99.90;;;;;;5093709;28;20393;-78
2022/09/16 06:23:52;;;;;;;10.25;3.92;;;20.00;99.90;;;;;;5093321;28;20081;-79
2022/09/16 06:26:21;;;;;;;10.05;4.00;;;20.00;99.90;;;;;;5093925;28;20028;-80
2022/09/16 06:28:48;;;;;;;8.23;3.40;;;20.10;99.90;;;;;;5109135;28;20032;-79
2022/09/16 06:31:16;;;;;;;11.13;3.90;;;20.10;99.90;;;;;;5092536;28;20173;-79
2022/09/16 06:33:43;;;;;;;14.77;6.07;;;20.10;99.90;;;;;;5093285;28;20032;-78
2022/09/16 06:36:15;;;;;;;14.32;5.13;;;20.10;99.90;;;;;;5093488;28;20451;-78
2022/09/16 06:38:40;;;;;;;;;;;20.20;99.90;;;;;;5093960;28;20024;-79
2022/09/16 06:41:08;;;;;;;14.02;5.25;;;20.40;99.90;;;;;;5093068;28;19920;-78
2022/09/16 06:43:35;;;;;;;13.20;5.22;;;20.50;99.90;;;;;;5093288;28;20111;-79
2022/09/16 06:46:09;;;;;;;10.20;4.90;;;20.70;99.90;;;;;;5093597;28;20036;-79
2022/09/16 06:48:35;;;;;;;12.35;5.45;;;20.70;99.90;;;;;;5109298;28;20114;-78
2022/09/16 06:51:04;;;;;;;11.77;4.30;;;20.70;99.90;;;;;;5093074;28;20386;-81
2022/09/16 06:53:31;;;;;;;14.65;3.95;;;20.60;99.90;;;;;;5093194;28;20051;-81
2022/09/16 06:56:01;;;;;;;10.48;3.65;;;20.70;99.90;;;;;;5109139;28;20032;-77
2022/09/16 06:58:30;;;;;;;12.07;4.13;;;20.70;99.90;;;;;;5108921;28;20532;-78
2022/09/16 07:00:56;;;;;;;11.75;3.20;;;20.70;99.90;;;;;;5092451;28;20459;-79
2022/09/16 07:03:22;;;;;;;11.73;4.57;;;20.70;99.90;;;;;;5093068;28;20053;-79
2022/09/16 07:06:00;;;;;;;7.35;4.07;;;20.70;99.90;;;;;;5093146;28;20036;-78
2022/09/16 07:08:38;;;;;;;10.07;4.65;;;20.60;99.90;;;;;;5092809;28;20382;-78
2022/09/16 07:11:09;;;;;;;16.00;5.10;;;20.70;99.90;;;;;;5092854;28;20490;-80
2022/09/16 07:13:35;;;;;;;13.52;3.97;;;20.60;99.90;;;;;;5092987;28;20033;-78
2022/09/16 07:16:03;;;;;;;5.72;2.88;;;20.50;99.90;;;;;;5092723;28;20028;-78
2022/09/16 07:18:30;;;;;;;4.88;2.90;;;20.50;99.90;;;;;;5095327;28;20108;-80
2022/09/16 07:21:01;;;;;;;21.42;10.10;;;20.50;99.90;;;;;;5096836;28;20107;-79
2022/09/16 07:23:29;;;;;;;23.10;10.35;;;20.50;99.90;;;;;;5095241;28;20110;-80
2022/09/16 07:26:09;;;;;;;21.60;9.65;;;20.40;99.90;;;;;;5096564;28;20085;-82
2022/09/16 07:28:36;;;;;;;9.90;2.95;;;20.40;99.90;;;;;;5096273;28;20020;-81
2022/09/16 07:31:04;;;;;;;9.35;3.22;;;20.40;99.90;;;;;;5095413;28;20051;-81
2022/09/16 07:33:32;;;;;;;9.20;3.67;;;20.30;99.90;;;;;;5095411;28;20024;-80
2022/09/16 07:36:02;;;;;;;13.18;4.53;;;20.30;99.90;;;;;;5096263;28;20454;-80
2022/09/16 07:38:29;;;;;;;10.30;4.32;;;20.40;99.90;;;;;;5096346;28;20474;-81
2022/09/16 07:40:55;;;;;;;10.93;4.10;;;20.40;99.90;;;;;;5096359;28;20070;-82
2022/09/16 07:43:21;;;;;;;11.98;3.50;;;20.60;99.90;;;;;;5095015;28;20028;-82
2022/09/16 07:45:53;;;;;;;9.73;4.28;;;20.60;99.90;;;;;;5095754;28;20134;-81
2022/09/16 07:48:19;;;;;;;13.30;5.20;;;20.50;99.90;;;;;;5096809;28;20016;-82
2022/09/16 07:50:53;;;;;;;12.27;5.05;;;20.50;99.90;;;;;;5094872;28;20489;-80
2022/09/16 07:53:19;;;;;;;14.23;4.15;;;20.50;99.90;;;;;;5096205;28;20031;-81
2022/09/16 07:55:45;;;;;;;10.63;4.18;;;20.50;99.90;;;;;;5094932;28;20032;-81
2022/09/16 07:58:11;;;;;;;15.75;3.67;;;20.50;99.90;;;;;;5093897;28;20027;-82
2022/09/16 08:00:37;;;;;;;9.40;3.92;;;20.50;99.90;;;;;;5095645;28;20035;-83
2022/09/16 08:03:04;;;;;;;7.43;3.45;;;20.60;99.90;;;;;;5095858;28;20111;-83
2022/09/16 08:05:30;;;;;;;6.05;3.50;;;20.70;99.90;;;;;;5093736;28;20115;-82
2022/09/16 08:07:56;;;;;;;7.88;3.63;;;20.90;99.90;;;;;;5094470;28;20449;-81
2022/09/16 08:10:22;;;;;;;8.63;3.35;;;21.20;99.90;;;;;;5095462;28;20158;-81
2022/09/16 08:12:48;;;;;;;8.65;2.80;;;21.50;99.90;;;;;;5095667;28;20024;-82
2022/09/16 08:15:14;;;;;;;11.57;3.60;;;21.60;99.90;;;;;;5094337;28;20051;-81
2022/09/16 08:17:39;;;;;;;8.20;3.70;;;21.60;99.90;;;;;;5094354;28;20474;-80
2022/09/16 08:20:06;;;;;;;7.93;3.50;;;21.50;99.90;;;;;;5095526;28;20028;-81
2022/09/16 08:22:32;;;;;;;10.75;5.30;;;21.50;99.90;;;;;;5095131;28;20028;-80
2022/09/16 08:24:58;;;;;;;8.52;3.50;;;21.50;99.90;;;;;;5095220;28;20032;-81
2022/09/16 08:27:24;;;;;;;8.13;3.50;;;21.60;99.90;;;;;;5095202;28;20024;-79
2022/09/16 08:29:49;;;;;;;9.82;3.70;;;21.50;99.90;;;;;;5094530;28;20024;-83
2022/09/16 08:32:15;;;;;;;12.38;7.03;;;21.50;99.90;;;;;;5095095;28;20037;-81
2022/09/16 08:34:41;;;;;;;34.42;17.13;;;21.60;99.90;;;;;;5094916;28;20024;-81
2022/09/16 08:37:07;;;;;;;48.60;26.30;;;21.50;99.90;;;;;;5095450;28;20043;-78
2022/09/16 08:39:32;;;;;;;34.25;18.98;;;21.50;99.90;;;;;;5094240;28;20055;-79
2022/09/16 08:42:14;;;;;;;9.73;4.80;;;21.50;99.90;;;;;;5094894;28;20035;-78
2022/09/16 08:44:56;;;;;;;6.30;4.10;;;21.70;99.90;;;;;;5094969;28;20027;-79
2022/09/16 08:47:37;;;;;;;6.03;3.08;;;21.70;99.90;;;;;;5094075;28;20375;-81
2022/09/16 08:50:09;;;;;;;9.68;3.80;;;21.60;99.90;;;;;;5095098;28;20027;-79
2022/09/16 08:52:37;;;;;;;7.90;2.97;;;21.50;99.90;;;;;;5094008;28;20031;-81
2022/09/16 08:55:32;;;;;;;9.95;4.13;;;21.50;99.90;;;;;;5095124;28;20032;-77
2022/09/16 08:58:18;;;;;;;6.55;3.63;;;21.50;99.90;;;;;;5076617;28;20455;-79
2022/09/16 09:00:47;;;;;;;7.65;3.60;;;21.50;99.90;;;;;;5094837;28;20027;-79
2022/09/16 09:03:21;;;;;;;11.10;4.90;;;21.30;99.90;;;;;;5093114;28;20494;-84
2022/09/16 09:05:55;;;;;;;9.10;4.32;;;21.30;99.90;;;;;;5095043;28;20032;-78
2022/09/16 09:08:43;;;;;;;7.28;4.20;;;21.30;99.90;;;;;;5093292;28;20051;-82
2022/09/16 09:11:26;;;;;;;11.00;3.97;;;21.30;99.90;;;;;;5092145;28;20028;-81
2022/09/16 09:14:20;;;;;;;8.80;3.85;;;21.30;99.90;;;;;;5093912;28;20031;-82
2022/09/16 09:17:07;;;;;;;15.43;3.47;;;21.10;99.90;;;;;;5094535;28;20375;-81
2022/09/16 09:20:00;;;;;;;7.22;3.28;;;20.90;99.90;;;;;;5093287;28;20039;-78
2022/09/16 09:22:40;;;;;;;11.98;3.05;;;20.80;99.90;;;;;;5094393;28;20028;-77
2022/09/16 09:25:15;;;;;;;16.92;4.45;;;20.70;99.90;;;;;;5092951;28;20066;-77
2022/09/16 09:27:46;;;;;;;14.13;3.80;;;20.50;99.90;;;;;;5094733;28;20103;-77
2022/09/16 09:30:21;;;;;;;10.77;4.15;;;20.50;99.90;;;;;;5094490;28;20020;-77
2022/09/16 09:32:58;;;;;;;13.90;6.80;;;20.30;99.90;;;;;;5092963;28;20463;-78
2022/09/16 09:36:01;;;;;;;20.98;11.68;;;20.30;99.90;;;;;;5093010;28;20035;-78
2022/09/16 09:38:55;;;;;;;8.82;5.00;;;20.40;99.90;;;;;;5092773;28;20118;-78
2022/09/16 09:41:26;;;;;;;12.90;4.00;;;20.40;99.90;;;;;;5093570;28;20057;-79
2022/09/16 09:44:17;;;;;;;12.02;5.07;;;20.40;99.90;;;;;;5094148;28;20374;-79
2022/09/16 09:46:49;;;;;;;11.05;5.05;;;20.50;99.90;;;;;;5093985;28;20032;-78
2022/09/16 09:49:30;;;;;;;9.00;4.22;;;20.50;99.90;;;;;;5094399;28;20020;-79
2022/09/16 09:51:59;;;;;;;15.50;5.03;;;20.60;99.90;;;;;;5094291;28;20054;-80
2022/09/16 09:54:24;;;;;;;10.80;3.63;;;20.60;99.90;;;;;;5094173;28;20047;-79
2022/09/16 09:56:54;;;;;;;12.02;4.30;;;20.70;99.90;;;;;;5093946;28;20363;-79
2022/09/16 09:59:37;;;;;;;9.00;3.00;;;20.90;99.90;;;;;;5093486;28;20047;-79
2022/09/16 10:02:16;;;;;;;14.57;5.82;;;21.20;99.90;;;;;;5093850;28;20064;-80
2022/09/16 10:04:42;;;;;;;43.33;26.23;;;21.50;99.90;;;;;;5094034;28;20024;-80
2022/09/16 10:07:10;;;;;;;16.90;8.75;;;21.90;99.90;;;;;;5093816;28;20377;-80
2022/09/16 10:09:44;;;;;;;76.10;39.28;;;21.80;99.90;;;;;;5093502;28;20209;-80
2022/09/16 10:12:10;;;;;;;6.28;3.70;;;21.80;99.90;;;;;;5094141;28;20050;-80
2022/09/16 10:14:37;;;;;;;6.80;2.33;;;21.70;99.90;;;;;;5093488;28;20451;-80
2022/09/16 10:17:14;;;;;;;5.82;1.65;;;21.60;99.90;;;;;;5093426;28;20029;-80
2022/09/16 10:19:49;;;;;;;6.25;1.30;;;21.50;99.90;;;;;;5093711;28;20046;-80
2022/09/16 10:22:28;;;;;;;6.30;1.65;;;21.50;99.90;;;;;;5092590;28;20035;-80
2022/09/16 10:24:57;;;;;;;2.17;1.13;;;21.50;99.90;;;;;;5092332;28;20076;-80
2022/09/16 10:27:26;;;;;;;4.80;1.30;;;21.50;99.90;;;;;;5094063;28;20073;-80
2022/09/16 10:30:06;;;;;;;4.55;1.60;;;21.50;99.90;;;;;;5093457;28;20024;-79
2022/09/16 10:32:56;;;;;;;5.03;1.40;;;21.50;99.90;;;;;;5093731;28;20040;-80
2022/09/16 10:35:28;;;;;;;5.20;1.38;;;21.40;99.90;;;;;;5092225;28;20111;-80
2022/09/16 10:38:01;;;;;;;3.47;1.50;;;21.40;99.90;;;;;;5093745;28;20020;-82
2022/09/16 10:40:27;;;;;;;4.55;1.85;;;21.40;99.90;;;;;;5093766;28;20070;-80
2022/09/16 10:42:57;;;;;;;5.47;1.83;;;21.40;99.90;;;;;;5093309;28;20423;-82
2022/09/16 10:45:29;;;;;;;4.38;1.45;;;21.30;99.90;;;;;;5093658;28;20107;-83
2022/09/16 10:47:59;;;;;;;9.82;1.95;;;21.20;99.90;;;;;;5093338;28;20081;-81
2022/09/16 10:50:25;;;;;;;5.40;1.50;;;21.10;99.90;;;;;;5093281;28;20032;-82
2022/09/16 10:52:53;;;;;;;6.18;1.80;;;20.90;99.90;;;;;;5095625;28;20028;-82
2022/09/16 10:55:18;;;;;;;3.30;1.38;;;20.80;99.90;;;;;;5095900;28;20028;-81
2022/09/16 10:57:45;;;;;;;4.95;2.35;;;20.80;99.90;;;;;;5097374;28;20028;-82
2022/09/16 11:00:14;;;;;;;10.15;2.08;;;20.70;99.90;;;;;;5096887;28;20024;-82
2022/09/16 11:02:54;;;;;;;8.00;2.25;;;20.70;99.90;;;;;;5096687;28;20478;-80
2022/09/16 11:05:26;;;;;;;6.60;2.50;;;20.70;99.90;;;;;;5096940;28;20047;-80
2022/09/16 11:08:00;;;;;;;20.92;2.75;;;20.80;99.90;;;;;;5096297;28;20024;-81
2022/09/16 11:10:42;;;;;;;10.23;3.47;;;20.80;99.90;;;;;;5098940;28;20036;-81
2022/09/16 11:13:26;;;;;;;9.20;2.67;;;20.80;99.90;;;;;;5095376;28;20032;-80
2022/09/16 11:16:10;;;;;;;7.22;5.38;;;20.70;99.90;;;;;;5095300;28;20101;-78
2022/09/16 11:18:49;;;;;;;6.63;3.13;;;20.70;99.90;;;;;;5096281;28;20020;-79
2022/09/16 11:21:33;;;;;;;8.10;3.25;;;20.70;99.90;;;;;;5096896;28;20035;-79
2022/09/16 11:24:25;;;;;;;9.02;2.97;;;20.60;99.90;;;;;;5096365;28;20032;-80
2022/09/16 11:27:17;;;;;;;13.10;3.50;;;20.50;99.90;;;;;;5096737;28;20024;-79
2022/09/16 11:30:18;;;;;;;9.63;3.50;;;20.50;99.90;;;;;;5073743;28;20044;-80
2022/09/16 11:32:47;;;;;;;8.85;3.60;;;20.50;99.90;;;;;;5073727;28;20068;-79
2022/09/16 11:35:25;;;;;;;10.18;3.83;;;20.40;99.90;;;;;;5072399;28;20070;-78
2022/09/16 11:38:03;;;;;;;8.70;3.60;;;20.50;99.90;;;;;;5073814;28;20056;-78
2022/09/16 11:40:53;;;;;;;9.13;3.95;;;20.50;99.90;;;;;;5056707;28;20148;-78
2022/09/16 11:43:44;;;;;;;9.60;3.72;;;20.60;99.90;;;;;;5073736;28;20530;-79
2022/09/16 11:46:27;;;;;;;8.90;4.40;;;20.70;99.90;;;;;;5055334;28;20037;-80
2022/09/16 11:49:12;;;;;;;7.88;3.30;;;20.80;99.90;;;;;;5073764;28;20467;-79
2022/09/16 11:52:12;;;;;;;10.07;4.00;;;20.70;99.90;;;;;;5073518;28;20028;-79
2022/09/16 11:54:53;;;;;;;7.10;3.65;;;20.50;99.90;;;;;;5073550;28;20033;-78
2022/09/16 11:57:25;;;;;;;7.55;3.97;;;20.40;99.90;;;;;;5057050;28;20042;-80
2022/09/16 11:59:53;;;;;;;;;;;20.40;99.90;;;;;;5056959;28;20036;-79
2022/09/16 12:02:45;;;;;;;12.70;3.90;;;20.50;99.90;;;;;;5072972;28;20457;-79
2022/09/16 12:05:37;;;;;;;9.48;3.92;;;20.30;99.90;;;;;;5073150;28;20036;-81
2022/09/16 12:08:21;;;;;;;;;;;20.20;99.90;;;;;;5096325;28;20032;-78
2022/09/16 12:11:06;;;;;;;14.10;5.97;;;20.20;99.90;;;;;;5095927;28;19999;-80
2022/09/16 12:13:39;;;;;;;11.57;6.32;;;20.00;99.90;;;;;;5095606;28;20020;-80
2022/09/16 12:16:10;;;;;;;13.13;6.40;;;20.00;99.90;;;;;;5095639;28;20024;-80
2022/09/16 12:18:44;;;;;;;11.32;6.50;;;20.00;99.90;;;;;;5098289;28;20090;-79
2022/09/16 12:21:22;;;;;;;15.20;6.88;;;20.00;99.90;;;;;;5101048;28;20036;-80
2022/09/16 12:23:54;;;;;;;29.92;18.02;;;19.90;99.90;;;;;;5115224;28;20093;-80
2022/09/16 12:26:37;;;;;;;36.40;24.27;;;20.00;99.90;;;;;;5093815;28;20051;-82
2022/09/16 12:29:20;;;;;;;19.77;9.20;;;20.00;99.90;;;;;;5089827;28;20027;-80
2022/09/16 12:31:55;;;;;;;13.18;8.10;;;20.00;99.90;;;;;;5093802;28;20020;-81
2022/09/16 12:34:50;;;;;;;13.00;8.57;;;20.00;99.90;;;;;;5095499;28;20119;-80
2022/09/16 12:37:42;;;;;;;26.67;19.85;;;20.10;99.90;;;;;;5108663;28;20047;-81
2022/09/16 12:40:19;;;;;;;38.75;31.88;;;20.20;99.90;;;;;;5094232;28;20047;-79
2022/09/16 12:43:07;;;;;;;17.70;12.68;;;20.40;99.90;;;;;;5114179;28;20359;-81
2022/09/16 12:45:51;;;;;;;16.15;10.13;;;20.40;99.90;;;;;;5114936;28;20034;-80
2022/09/16 12:48:49;;;;;;;10.68;6.68;;;20.70;99.90;;;;;;5102643;28;20031;-82
2022/09/16 12:51:32;;;;;;;17.27;5.75;;;20.80;99.90;;;;;;5088384;28;20028;-81
2022/09/16 12:54:08;;;;;;;10.82;6.13;;;20.80;99.90;;;;;;5094797;28;20028;-82
2022/09/16 12:57:03;;;;;;;11.55;6.07;;;20.90;99.90;;;;;;5094820;28;20028;-82
2022/09/16 12:59:50;;;;;;;10.20;6.40;;;20.90;99.90;;;;;;5091063;28;20028;-88
2022/09/16 13:02:27;;;;;;;12.20;7.85;;;20.80;99.90;;;;;;5093385;28;20039;-84
2022/09/16 13:04:57;;;;;;;9.20;6.25;;;20.80;99.90;;;;;;5095373;28;20035;-80
2022/09/16 13:07:31;;;;;;;9.07;4.55;;;20.70;99.90;;;;;;5115558;28;20034;-83
2022/09/16 13:10:18;;;;;;;11.73;6.43;;;20.60;99.90;;;;;;5113954;28;20077;-88
2022/09/16 13:12:53;;;;;;;11.95;5.82;;;20.70;99.90;;;;;;5115074;28;20208;-81
2022/09/16 13:15:24;;;;;;;10.93;4.40;;;21.00;99.90;;;;;;5114821;28;20038;-81